sensor_id;sensor_type;location;lat;lon;timestamp;temperature;humidity
12692;DHT22;6410;57.636;18.304;2022-07-29T00:01:18;11.60;99.90
12692;DHT22;6410;57.636;18.304;2022-07-29T00:03:47;11.60;99.90
12692;DHT22;6410;57.636;18.304;2022-07-29T00:06:15;11.60;99.90
12692;DHT22;6410;57.636;18.304;2022-07-29T00:08:44;11.60;99.90
12692;DHT22;6410;57.636;18.304;2022-07-29T00:11:13;11.40;99.90
12692;DHT22;6410;57.636;18.304;2022-07-29T00:13:42;11.30;99.90
12692;DHT22;6410;57.636;18.304;2022-07-29T00:16:16;11.20;99.90
12692;DHT22;6410;57.636;18.304;2022-07-29T00:18:45;11.20;99.90
12692;DHT22;6410;57.636;18.304;2022-07-29T00:21:13;11.20;99.90
12692;DHT22;6410;57.636;18.304;2022-07-29T00:23:41;11.30;99.90
12692;DHT22;6410;57.636;18.304;2022-07-29T00:26:10;11.30;99.90
12692;DHT22;6410;57.636;18.304;2022-07-29T00:28:39;11.40;99.90
12692;DHT22;6410;57.636;18.304;2022-07-29T00:31:08;11.30;99.90
12692;DHT22;6410;57.636;18.304;2022-07-29T00:33:36;11.30;99.90
12692;DHT22;6410;57.636;18.304;2022-07-29T00:36:05;11.20;99.90
12692;DHT22;6410;57.636;18.304;2022-07-29T00:38:32;11.10;99.90
12692;DHT22;6410;57.636;18.304;2022-07-29T00:41:00;11.10;99.90
12692;DHT22;6410;57.636;18.304;2022-07-29T00:43:29;11.20;99.90
12692;DHT22;6410;57.636;18.304;2022-07-29T00:45:58;11.10;99.90
12692;DHT22;6410;57.636;18.304;2022-07-29T00:48:27;11.20;99.90
12692;DHT22;6410;57.636;18.304;2022-07-29T00:50:56;11.10;99.90
12692;DHT22;6410;57.636;18.304;2022-07-29T00:53:25;11.10;99.90
12692;DHT22;6410;57.636;18.304;2022-07-29T00:55:54;11.10;99.90
12692;DHT22;6410;57.636;18.304;2022-07-29T00:58:23;11.10;99.90
12692;DHT22;6410;57.636;18.304;2022-07-29T01:00:51;11.00;99.90
12692;DHT22;6410;57.636;18.304;2022-07-29T01:03:21;10.90;99.90
12692;DHT22;6410;57.636;18.304;2022-07-29T01:05:50;10.90;99.90
12692;DHT22;6410;57.636;18.304;2022-07-29T01:08:19;11.00;99.90
12692;DHT22;6410;57.636;18.304;2022-07-29T01:10:49;11.00;99.90
12692;DHT22;6410;57.636;18.304;2022-07-29T01:13:19;10.90;99.90
12692;DHT22;6410;57.636;18.304;2022-07-29T01:15:51;10.90;99.90
12692;DHT22;6410;57.636;18.304;2022-07-29T01:18:30;10.90;99.90
12692;DHT22;6410;57.636;18.304;2022-07-29T01:21:22;10.80;99.90
12692;DHT22;6410;57.636;18.304;2022-07-29T01:24:06;10.80;99.90
12692;DHT22;6410;57.636;18.304;2022-07-29T01:26:42;10.80;99.90
12692;DHT22;6410;57.636;18.304;2022-07-29T01:29:16;10.80;99.90
12692;DHT22;6410;57.636;18.304;2022-07-29T01:31:53;10.70;99.90
12692;DHT22;6410;57.636;18.304;2022-07-29T01:34:31;10.80;99.90
12692;DHT22;6410;57.636;18.304;2022-07-29T01:37:18;10.80;99.90
12692;DHT22;6410;57.636;18.304;2022-07-29T01:39:49;10.80;99.90
12692;DHT22;6410;57.636;18.304;2022-07-29T01:42:29;10.80;99.90
12692;DHT22;6410;57.636;18.304;2022-07-29T01:45:03;10.90;99.90
12692;DHT22;6410;57.636;18.304;2022-07-29T01:47:38;11.00;99.90
12692;DHT22;6410;57.636;18.304;2022-07-29T01:50:12;11.10;99.90
12692;DHT22;6410;57.636;18.304;2022-07-29T01:52:47;11.00;99.90
12692;DHT22;6410;57.636;18.304;2022-07-29T01:55:19;11.00;99.90
12692;DHT22;6410;57.636;18.304;2022-07-29T01:57:49;11.00;99.90
12692;DHT22;6410;57.636;18.304;2022-07-29T02:00:19;11.10;99.90
12692;DHT22;6410;57.636;18.304;2022-07-29T02:02:49;11.10;99.90
12692;DHT22;6410;57.636;18.304;2022-07-29T02:05:19;11.10;99.90
12692;DHT22;6410;57.636;18.304;2022-07-29T02:07:48;11.10;99.90
12692;DHT22;6410;57.636;18.304;2022-07-29T02:10:21;11.20;99.90
12692;DHT22;6410;57.636;18.304;2022-07-29T02:12:53;11.30;99.90
12692;DHT22;6410;57.636;18.304;2022-07-29T02:15:24;11.30;99.90
12692;DHT22;6410;57.636;18.304;2022-07-29T02:17:56;11.30;99.90
12692;DHT22;6410;57.636;18.304;2022-07-29T02:20:26;11.40;99.90
12692;DHT22;6410;57.636;18.304;2022-07-29T02:22:57;11.40;99.90
12692;DHT22;6410;57.636;18.304;2022-07-29T02:25:26;11.50;99.90
12692;DHT22;6410;57.636;18.304;2022-07-29T02:28:05;11.30;99.90
12692;DHT22;6410;57.636;18.304;2022-07-29T02:30:38;11.40;99.90
12692;DHT22;6410;57.636;18.304;2022-07-29T02:33:08;11.40;99.90
12692;DHT22;6410;57.636;18.304;2022-07-29T02:35:39;11.30;99.90
12692;DHT22;6410;57.636;18.304;2022-07-29T02:38:10;11.20;99.90
12692;DHT22;6410;57.636;18.304;2022-07-29T02:40:59;11.10;99.90
12692;DHT22;6410;57.636;18.304;2022-07-29T02:43:29;11.10;99.90
12692;DHT22;6410;57.636;18.304;2022-07-29T02:46:00;11.00;99.90
12692;DHT22;6410;57.636;18.304;2022-07-29T02:48:43;11.00;99.90
12692;DHT22;6410;57.636;18.304;2022-07-29T02:51:16;11.00;99.90
12692;DHT22;6410;57.636;18.304;2022-07-29T02:54:07;10.90;99.90
12692;DHT22;6410;57.636;18.304;2022-07-29T02:56:38;10.90;99.90
12692;DHT22;6410;57.636;18.304;2022-07-29T02:59:10;10.90;99.90
12692;DHT22;6410;57.636;18.304;2022-07-29T03:01:44;10.90;99.90
12692;DHT22;6410;57.636;18.304;2022-07-29T03:04:14;10.90;99.90
12692;DHT22;6410;57.636;18.304;2022-07-29T03:06:44;11.00;99.90
12692;DHT22;6410;57.636;18.304;2022-07-29T03:09:14;11.00;99.90
12692;DHT22;6410;57.636;18.304;2022-07-29T03:11:44;11.00;99.90
12692;DHT22;6410;57.636;18.304;2022-07-29T03:14:17;11.00;99.90
12692;DHT22;6410;57.636;18.304;2022-07-29T03:16:49;11.00;99.90
12692;DHT22;6410;57.636;18.304;2022-07-29T03:19:19;10.90;99.90
12692;DHT22;6410;57.636;18.304;2022-07-29T03:21:48;11.00;99.90
12692;DHT22;6410;57.636;18.304;2022-07-29T03:24:35;11.00;99.90
12692;DHT22;6410;57.636;18.304;2022-07-29T03:27:04;11.10;99.90
12692;DHT22;6410;57.636;18.304;2022-07-29T03:29:32;11.10;99.90
12692;DHT22;6410;57.636;18.304;2022-07-29T03:32:04;11.20;99.90
12692;DHT22;6410;57.636;18.304;2022-07-29T03:34:35;11.40;99.90
12692;DHT22;6410;57.636;18.304;2022-07-29T03:37:04;11.50;99.90
12692;DHT22;6410;57.636;18.304;2022-07-29T03:39:36;11.60;99.90
12692;DHT22;6410;57.636;18.304;2022-07-29T03:42:08;11.60;99.90
12692;DHT22;6410;57.636;18.304;2022-07-29T03:44:39;11.60;99.90
12692;DHT22;6410;57.636;18.304;2022-07-29T03:47:11;11.70;99.90
12692;DHT22;6410;57.636;18.304;2022-07-29T03:49:42;11.70;99.90
12692;DHT22;6410;57.636;18.304;2022-07-29T03:52:12;11.90;99.90
12692;DHT22;6410;57.636;18.304;2022-07-29T03:54:41;12.00;99.90
12692;DHT22;6410;57.636;18.304;2022-07-29T03:57:11;12.10;99.90
12692;DHT22;6410;57.636;18.304;2022-07-29T03:59:40;12.10;99.90
12692;DHT22;6410;57.636;18.304;2022-07-29T04:02:11;12.20;99.90
12692;DHT22;6410;57.636;18.304;2022-07-29T04:04:43;12.30;99.90
12692;DHT22;6410;57.636;18.304;2022-07-29T04:07:12;12.40;99.90
12692;DHT22;6410;57.636;18.304;2022-07-29T04:09:41;12.50;99.90
12692;DHT22;6410;57.636;18.304;2022-07-29T04:12:09;12.50;99.90
12692;DHT22;6410;57.636;18.304;2022-07-29T04:17:07;12.60;99.90
12692;DHT22;6410;57.636;18.304;2022-07-29T04:19:37;12.70;99.90
12692;DHT22;6410;57.636;18.304;2022-07-29T04:22:05;12.80;99.90
12692;DHT22;6410;57.636;18.304;2022-07-29T04:24:34;12.90;99.90
12692;DHT22;6410;57.636;18.304;2022-07-29T04:27:03;13.00;99.90
12692;DHT22;6410;57.636;18.304;2022-07-29T04:29:31;13.10;99.90
12692;DHT22;6410;57.636;18.304;2022-07-29T04:31:59;13.20;99.90
12692;DHT22;6410;57.636;18.304;2022-07-29T04:34:27;13.30;99.90
12692;DHT22;6410;57.636;18.304;2022-07-29T04:36:57;13.40;99.90
12692;DHT22;6410;57.636;18.304;2022-07-29T04:39:25;13.50;99.90
12692;DHT22;6410;57.636;18.304;2022-07-29T04:41:56;13.50;99.90
12692;DHT22;6410;57.636;18.304;2022-07-29T04:44:25;13.60;99.90
12692;DHT22;6410;57.636;18.304;2022-07-29T04:46:55;13.70;99.90
12692;DHT22;6410;57.636;18.304;2022-07-29T04:49:24;13.80;99.90
12692;DHT22;6410;57.636;18.304;2022-07-29T04:51:53;13.90;99.90
12692;DHT22;6410;57.636;18.304;2022-07-29T04:54:23;14.10;99.90
12692;DHT22;6410;57.636;18.304;2022-07-29T04:56:52;14.10;99.90
12692;DHT22;6410;57.636;18.304;2022-07-29T04:59:20;14.30;99.90
12692;DHT22;6410;57.636;18.304;2022-07-29T05:01:48;14.40;99.90
12692;DHT22;6410;57.636;18.304;2022-07-29T05:04:17;14.60;99.90
12692;DHT22;6410;57.636;18.304;2022-07-29T05:06:46;14.70;99.90
12692;DHT22;6410;57.636;18.304;2022-07-29T05:09:15;14.90;99.90
12692;DHT22;6410;57.636;18.304;2022-07-29T05:11:44;15.00;99.90
12692;DHT22;6410;57.636;18.304;2022-07-29T05:14:13;15.00;99.90
12692;DHT22;6410;57.636;18.304;2022-07-29T05:16:41;15.20;99.90
12692;DHT22;6410;57.636;18.304;2022-07-29T05:19:10;15.30;99.90
12692;DHT22;6410;57.636;18.304;2022-07-29T05:21:40;15.40;99.90
12692;DHT22;6410;57.636;18.304;2022-07-29T05:24:09;15.50;99.90
12692;DHT22;6410;57.636;18.304;2022-07-29T05:26:39;15.60;99.90
12692;DHT22;6410;57.636;18.304;2022-07-29T05:29:09;15.70;99.90
12692;DHT22;6410;57.636;18.304;2022-07-29T05:31:57;15.80;99.90
12692;DHT22;6410;57.636;18.304;2022-07-29T05:34:26;16.00;99.90
12692;DHT22;6410;57.636;18.304;2022-07-29T05:36:54;16.10;99.90
12692;DHT22;6410;57.636;18.304;2022-07-29T05:39:23;16.20;99.90
12692;DHT22;6410;57.636;18.304;2022-07-29T05:42:11;16.40;99.90
12692;DHT22;6410;57.636;18.304;2022-07-29T05:44:41;16.50;99.90
12692;DHT22;6410;57.636;18.304;2022-07-29T05:47:09;16.70;99.90
12692;DHT22;6410;57.636;18.304;2022-07-29T05:49:38;16.70;99.90
12692;DHT22;6410;57.636;18.304;2022-07-29T05:52:06;16.80;99.90
12692;DHT22;6410;57.636;18.304;2022-07-29T05:54:35;16.90;99.90
12692;DHT22;6410;57.636;18.304;2022-07-29T05:57:04;17.10;99.90
12692;DHT22;6410;57.636;18.304;2022-07-29T05:59:37;17.10;99.90
12692;DHT22;6410;57.636;18.304;2022-07-29T06:02:07;17.20;99.90
12692;DHT22;6410;57.636;18.304;2022-07-29T06:04:35;17.30;99.90
12692;DHT22;6410;57.636;18.304;2022-07-29T06:07:03;17.50;99.90
12692;DHT22;6410;57.636;18.304;2022-07-29T06:09:32;17.50;99.90
12692;DHT22;6410;57.636;18.304;2022-07-29T06:12:02;17.60;99.90
12692;DHT22;6410;57.636;18.304;2022-07-29T06:14:31;17.50;99.90
12692;DHT22;6410;57.636;18.304;2022-07-29T06:16:59;17.50;99.90
12692;DHT22;6410;57.636;18.304;2022-07-29T06:19:29;17.60;99.90
12692;DHT22;6410;57.636;18.304;2022-07-29T06:21:57;17.70;99.90
12692;DHT22;6410;57.636;18.304;2022-07-29T06:24:25;17.70;99.90
12692;DHT22;6410;57.636;18.304;2022-07-29T06:26:54;17.70;99.90
12692;DHT22;6410;57.636;18.304;2022-07-29T06:29:22;17.70;99.90
12692;DHT22;6410;57.636;18.304;2022-07-29T06:31:51;17.70;99.90
12692;DHT22;6410;57.636;18.304;2022-07-29T06:34:19;17.90;99.90
12692;DHT22;6410;57.636;18.304;2022-07-29T06:36:49;18.10;99.90
12692;DHT22;6410;57.636;18.304;2022-07-29T06:39:20;18.10;99.90
12692;DHT22;6410;57.636;18.304;2022-07-29T06:41:48;18.10;99.90
12692;DHT22;6410;57.636;18.304;2022-07-29T06:44:17;18.40;99.90
12692;DHT22;6410;57.636;18.304;2022-07-29T06:46:46;18.30;99.90
12692;DHT22;6410;57.636;18.304;2022-07-29T06:49:16;18.40;99.90
12692;DHT22;6410;57.636;18.304;2022-07-29T06:51:44;18.40;99.90
12692;DHT22;6410;57.636;18.304;2022-07-29T06:54:14;18.50;99.90
12692;DHT22;6410;57.636;18.304;2022-07-29T06:56:43;18.70;99.90
12692;DHT22;6410;57.636;18.304;2022-07-29T06:59:12;18.50;99.90
12692;DHT22;6410;57.636;18.304;2022-07-29T07:01:42;18.70;99.90
12692;DHT22;6410;57.636;18.304;2022-07-29T07:04:11;18.70;99.90
12692;DHT22;6410;57.636;18.304;2022-07-29T07:06:41;18.80;99.90
12692;DHT22;6410;57.636;18.304;2022-07-29T07:09:09;18.70;99.90
12692;DHT22;6410;57.636;18.304;2022-07-29T07:11:39;18.80;99.90
12692;DHT22;6410;57.636;18.304;2022-07-29T07:14:07;18.80;99.90
12692;DHT22;6410;57.636;18.304;2022-07-29T07:16:35;19.10;99.90
12692;DHT22;6410;57.636;18.304;2022-07-29T07:19:03;19.30;99.90
12692;DHT22;6410;57.636;18.304;2022-07-29T07:21:33;19.40;99.90
12692;DHT22;6410;57.636;18.304;2022-07-29T07:24:01;19.50;99.90
12692;DHT22;6410;57.636;18.304;2022-07-29T07:26:30;19.80;99.90
12692;DHT22;6410;57.636;18.304;2022-07-29T07:29:00;19.70;99.90
12692;DHT22;6410;57.636;18.304;2022-07-29T07:31:28;19.70;99.90
12692;DHT22;6410;57.636;18.304;2022-07-29T07:33:57;19.30;99.90
12692;DHT22;6410;57.636;18.304;2022-07-29T07:36:25;19.40;99.90
12692;DHT22;6410;57.636;18.304;2022-07-29T07:38:54;19.40;99.90
12692;DHT22;6410;57.636;18.304;2022-07-29T07:41:22;19.40;99.90
12692;DHT22;6410;57.636;18.304;2022-07-29T07:43:50;19.50;99.90
12692;DHT22;6410;57.636;18.304;2022-07-29T07:46:20;19.30;99.90
12692;DHT22;6410;57.636;18.304;2022-07-29T07:48:48;19.10;99.90
12692;DHT22;6410;57.636;18.304;2022-07-29T07:51:17;19.20;99.90
12692;DHT22;6410;57.636;18.304;2022-07-29T07:53:45;19.00;99.90
12692;DHT22;6410;57.636;18.304;2022-07-29T07:56:16;18.80;99.90
12692;DHT22;6410;57.636;18.304;2022-07-29T07:58:44;18.70;99.90
12692;DHT22;6410;57.636;18.304;2022-07-29T08:01:12;18.70;99.90
12692;DHT22;6410;57.636;18.304;2022-07-29T08:03:42;18.80;99.90
12692;DHT22;6410;57.636;18.304;2022-07-29T08:06:10;18.80;99.90
12692;DHT22;6410;57.636;18.304;2022-07-29T08:08:39;18.70;99.90
12692;DHT22;6410;57.636;18.304;2022-07-29T08:11:07;18.90;99.90
12692;DHT22;6410;57.636;18.304;2022-07-29T08:13:36;18.80;99.90
12692;DHT22;6410;57.636;18.304;2022-07-29T08:16:06;18.90;99.90
12692;DHT22;6410;57.636;18.304;2022-07-29T08:18:44;18.90;99.90
12692;DHT22;6410;57.636;18.304;2022-07-29T08:21:13;18.90;99.90
12692;DHT22;6410;57.636;18.304;2022-07-29T08:23:45;19.20;99.90
12692;DHT22;6410;57.636;18.304;2022-07-29T08:26:27;19.70;99.90
12692;DHT22;6410;57.636;18.304;2022-07-29T08:28:55;20.10;99.90
12692;DHT22;6410;57.636;18.304;2022-07-29T08:31:24;20.00;99.90
12692;DHT22;6410;57.636;18.304;2022-07-29T08:33:53;19.70;99.90
12692;DHT22;6410;57.636;18.304;2022-07-29T08:36:30;19.60;99.90
12692;DHT22;6410;57.636;18.304;2022-07-29T08:39:04;19.60;99.90
12692;DHT22;6410;57.636;18.304;2022-07-29T08:41:33;19.90;99.90
12692;DHT22;6410;57.636;18.304;2022-07-29T08:44:01;20.00;99.90
12692;DHT22;6410;57.636;18.304;2022-07-29T08:46:30;19.90;99.90
12692;DHT22;6410;57.636;18.304;2022-07-29T08:48:59;19.70;99.90
12692;DHT22;6410;57.636;18.304;2022-07-29T08:51:28;19.70;99.90
12692;DHT22;6410;57.636;18.304;2022-07-29T08:53:57;19.80;99.90
12692;DHT22;6410;57.636;18.304;2022-07-29T08:56:29;20.20;99.90
12692;DHT22;6410;57.636;18.304;2022-07-29T08:58:58;20.10;99.90
12692;DHT22;6410;57.636;18.304;2022-07-29T09:01:33;20.50;99.90
12692;DHT22;6410;57.636;18.304;2022-07-29T09:04:12;20.70;99.90
12692;DHT22;6410;57.636;18.304;2022-07-29T09:06:46;20.80;99.90
12692;DHT22;6410;57.636;18.304;2022-07-29T09:09:15;20.70;99.90
12692;DHT22;6410;57.636;18.304;2022-07-29T09:11:46;20.50;99.90
12692;DHT22;6410;57.636;18.304;2022-07-29T09:14:15;20.50;99.90
12692;DHT22;6410;57.636;18.304;2022-07-29T09:16:53;20.40;99.90
12692;DHT22;6410;57.636;18.304;2022-07-29T09:19:28;20.00;99.90
12692;DHT22;6410;57.636;18.304;2022-07-29T09:21:58;19.60;99.90
12692;DHT22;6410;57.636;18.304;2022-07-29T09:24:43;19.30;99.90
12692;DHT22;6410;57.636;18.304;2022-07-29T09:27:20;19.20;99.90
12692;DHT22;6410;57.636;18.304;2022-07-29T09:29:58;19.10;99.90
12692;DHT22;6410;57.636;18.304;2022-07-29T09:32:28;19.10;99.90
12692;DHT22;6410;57.636;18.304;2022-07-29T09:35:17;18.90;99.90
12692;DHT22;6410;57.636;18.304;2022-07-29T09:37:46;18.80;99.90
12692;DHT22;6410;57.636;18.304;2022-07-29T09:40:17;18.70;99.90
12692;DHT22;6410;57.636;18.304;2022-07-29T09:42:46;18.70;99.90
12692;DHT22;6410;57.636;18.304;2022-07-29T09:45:27;18.70;99.90
12692;DHT22;6410;57.636;18.304;2022-07-29T09:47:57;18.30;99.90
12692;DHT22;6410;57.636;18.304;2022-07-29T09:50:39;18.40;99.90
12692;DHT22;6410;57.636;18.304;2022-07-29T09:53:08;18.40;99.90
12692;DHT22;6410;57.636;18.304;2022-07-29T09:55:47;18.10;99.90
12692;DHT22;6410;57.636;18.304;2022-07-29T09:58:18;18.10;99.90
12692;DHT22;6410;57.636;18.304;2022-07-29T10:00:47;18.00;99.90
12692;DHT22;6410;57.636;18.304;2022-07-29T10:03:16;18.00;99.90
12692;DHT22;6410;57.636;18.304;2022-07-29T10:06:03;18.10;99.90
12692;DHT22;6410;57.636;18.304;2022-07-29T10:08:31;18.10;99.90
12692;DHT22;6410;57.636;18.304;2022-07-29T10:11:09;17.80;99.90
12692;DHT22;6410;57.636;18.304;2022-07-29T10:13:39;18.10;99.90
12692;DHT22;6410;57.636;18.304;2022-07-29T10:16:08;18.40;99.90
12692;DHT22;6410;57.636;18.304;2022-07-29T10:18:38;18.60;99.90
12692;DHT22;6410;57.636;18.304;2022-07-29T10:21:09;18.80;99.90
12692;DHT22;6410;57.636;18.304;2022-07-29T10:23:59;19.50;99.90
12692;DHT22;6410;57.636;18.304;2022-07-29T10:26:28;19.90;99.90
12692;DHT22;6410;57.636;18.304;2022-07-29T10:28:57;20.10;99.90
12692;DHT22;6410;57.636;18.304;2022-07-29T10:31:29;19.70;99.90
12692;DHT22;6410;57.636;18.304;2022-07-29T10:34:07;19.30;99.90
12692;DHT22;6410;57.636;18.304;2022-07-29T10:36:49;19.70;99.90
12692;DHT22;6410;57.636;18.304;2022-07-29T10:39:32;20.10;99.90
12692;DHT22;6410;57.636;18.304;2022-07-29T10:42:17;20.10;99.90
12692;DHT22;6410;57.636;18.304;2022-07-29T10:45:06;20.50;99.90
12692;DHT22;6410;57.636;18.304;2022-07-29T10:47:35;21.30;99.90
12692;DHT22;6410;57.636;18.304;2022-07-29T10:50:05;22.10;99.90
12692;DHT22;6410;57.636;18.304;2022-07-29T10:52:55;22.60;99.90
12692;DHT22;6410;57.636;18.304;2022-07-29T10:55:32;22.80;99.90
12692;DHT22;6410;57.636;18.304;2022-07-29T10:58:14;23.00;99.90
12692;DHT22;6410;57.636;18.304;2022-07-29T11:00:44;23.20;99.90
12692;DHT22;6410;57.636;18.304;2022-07-29T11:03:43;22.10;99.90
12692;DHT22;6410;57.636;18.304;2022-07-29T11:06:17;21.70;99.90
12692;DHT22;6410;57.636;18.304;2022-07-29T11:15:15;23.40;99.90
12692;DHT22;6410;57.636;18.304;2022-07-29T11:18:08;24.10;99.90
12692;DHT22;6410;57.636;18.304;2022-07-29T11:20:56;23.90;99.90
12692;DHT22;6410;57.636;18.304;2022-07-29T11:23:28;24.20;99.90
12692;DHT22;6410;57.636;18.304;2022-07-29T11:26:16;23.70;99.90
12692;DHT22;6410;57.636;18.304;2022-07-29T11:28:54;23.10;99.90
12692;DHT22;6410;57.636;18.304;2022-07-29T11:31:38;23.20;99.90
12692;DHT22;6410;57.636;18.304;2022-07-29T11:34:18;23.40;99.90
12692;DHT22;6410;57.636;18.304;2022-07-29T11:37:17;23.60;99.90
12692;DHT22;6410;57.636;18.304;2022-07-29T11:40:14;23.50;99.90
12692;DHT22;6410;57.636;18.304;2022-07-29T11:42:50;23.80;99.90
12692;DHT22;6410;57.636;18.304;2022-07-29T11:45:22;24.30;99.90
12692;DHT22;6410;57.636;18.304;2022-07-29T11:48:16;24.80;99.90
12692;DHT22;6410;57.636;18.304;2022-07-29T11:50:58;24.60;99.90
12692;DHT22;6410;57.636;18.304;2022-07-29T11:53:26;25.10;99.90
12692;DHT22;6410;57.636;18.304;2022-07-29T11:56:21;24.70;99.90
12692;DHT22;6410;57.636;18.304;2022-07-29T11:59:02;24.80;99.90
12692;DHT22;6410;57.636;18.304;2022-07-29T12:01:35;24.00;99.90
12692;DHT22;6410;57.636;18.304;2022-07-29T12:04:04;23.40;99.90
12692;DHT22;6410;57.636;18.304;2022-07-29T12:06:33;23.30;99.90
12692;DHT22;6410;57.636;18.304;2022-07-29T12:09:07;23.30;99.90
12692;DHT22;6410;57.636;18.304;2022-07-29T12:11:40;23.10;99.90
12692;DHT22;6410;57.636;18.304;2022-07-29T12:14:28;23.20;99.90
12692;DHT22;6410;57.636;18.304;2022-07-29T12:16:59;22.80;99.90
12692;DHT22;6410;57.636;18.304;2022-07-29T12:19:27;23.00;99.90
12692;DHT22;6410;57.636;18.304;2022-07-29T12:21:57;23.90;99.90
12692;DHT22;6410;57.636;18.304;2022-07-29T12:24:42;23.80;99.90
12692;DHT22;6410;57.636;18.304;2022-07-29T12:27:10;24.20;99.90
12692;DHT22;6410;57.636;18.304;2022-07-29T12:29:40;24.40;99.90
12692;DHT22;6410;57.636;18.304;2022-07-29T12:32:15;24.90;99.90
12692;DHT22;6410;57.636;18.304;2022-07-29T12:34:46;24.30;99.90
12692;DHT22;6410;57.636;18.304;2022-07-29T12:37:14;25.00;99.90
12692;DHT22;6410;57.636;18.304;2022-07-29T12:39:43;24.70;99.90
12692;DHT22;6410;57.636;18.304;2022-07-29T12:42:12;24.80;99.90
12692;DHT22;6410;57.636;18.304;2022-07-29T12:44:46;24.70;99.90
12692;DHT22;6410;57.636;18.304;2022-07-29T12:47:16;25.20;99.90
12692;DHT22;6410;57.636;18.304;2022-07-29T12:49:45;25.80;99.90
12692;DHT22;6410;57.636;18.304;2022-07-29T12:52:26;26.80;99.90
12692;DHT22;6410;57.636;18.304;2022-07-29T12:54:56;28.20;99.90
12692;DHT22;6410;57.636;18.304;2022-07-29T12:57:25;27.90;99.90
12692;DHT22;6410;57.636;18.304;2022-07-29T13:00:03;29.40;99.90
12692;DHT22;6410;57.636;18.304;2022-07-29T13:02:37;30.40;99.90
12692;DHT22;6410;57.636;18.304;2022-07-29T13:05:08;30.20;99.90
12692;DHT22;6410;57.636;18.304;2022-07-29T13:07:37;31.40;99.90
12692;DHT22;6410;57.636;18.304;2022-07-29T13:10:24;29.80;99.90
12692;DHT22;6410;57.636;18.304;2022-07-29T13:13:03;30.50;99.90
12692;DHT22;6410;57.636;18.304;2022-07-29T13:15:32;31.40;99.90
12692;DHT22;6410;57.636;18.304;2022-07-29T13:18:03;31.40;99.90
12692;DHT22;6410;57.636;18.304;2022-07-29T13:20:32;30.80;99.90
12692;DHT22;6410;57.636;18.304;2022-07-29T13:23:00;32.10;99.90
12692;DHT22;6410;57.636;18.304;2022-07-29T13:25:30;29.30;99.90
12692;DHT22;6410;57.636;18.304;2022-07-29T13:27:59;28.50;99.90
12692;DHT22;6410;57.636;18.304;2022-07-29T13:30:27;30.30;99.90
12692;DHT22;6410;57.636;18.304;2022-07-29T13:32:56;31.80;99.90
12692;DHT22;6410;57.636;18.304;2022-07-29T13:35:26;31.90;99.90
12692;DHT22;6410;57.636;18.304;2022-07-29T13:37:56;33.50;99.90
12692;DHT22;6410;57.636;18.304;2022-07-29T13:40:25;31.50;99.90
12692;DHT22;6410;57.636;18.304;2022-07-29T13:42:53;31.10;99.90
12692;DHT22;6410;57.636;18.304;2022-07-29T13:45:21;32.50;99.90
12692;DHT22;6410;57.636;18.304;2022-07-29T13:47:54;33.20;99.90
12692;DHT22;6410;57.636;18.304;2022-07-29T13:50:24;33.60;99.90
12692;DHT22;6410;57.636;18.304;2022-07-29T13:52:53;32.50;99.90
12692;DHT22;6410;57.636;18.304;2022-07-29T13:55:21;31.90;99.90
12692;DHT22;6410;57.636;18.304;2022-07-29T13:57:49;31.80;99.90
12692;DHT22;6410;57.636;18.304;2022-07-29T14:00:17;31.10;99.90
12692;DHT22;6410;57.636;18.304;2022-07-29T14:02:46;31.00;99.90
12692;DHT22;6410;57.636;18.304;2022-07-29T14:05:14;31.90;99.90
12692;DHT22;6410;57.636;18.304;2022-07-29T14:07:44;32.60;99.90
12692;DHT22;6410;57.636;18.304;2022-07-29T14:10:13;31.50;99.90
12692;DHT22;6410;57.636;18.304;2022-07-29T14:12:45;30.40;99.90
12692;DHT22;6410;57.636;18.304;2022-07-29T14:15:14;29.60;99.90
12692;DHT22;6410;57.636;18.304;2022-07-29T14:17:42;31.10;99.90
12692;DHT22;6410;57.636;18.304;2022-07-29T14:20:10;30.00;99.90
12692;DHT22;6410;57.636;18.304;2022-07-29T14:22:39;29.50;99.90
12692;DHT22;6410;57.636;18.304;2022-07-29T14:25:12;30.70;99.90
12692;DHT22;6410;57.636;18.304;2022-07-29T14:27:41;32.80;99.90
12692;DHT22;6410;57.636;18.304;2022-07-29T14:30:11;33.60;99.90
12692;DHT22;6410;57.636;18.304;2022-07-29T14:32:39;32.70;99.90
12692;DHT22;6410;57.636;18.304;2022-07-29T14:35:08;30.70;99.90
12692;DHT22;6410;57.636;18.304;2022-07-29T14:37:38;32.30;99.90
12692;DHT22;6410;57.636;18.304;2022-07-29T14:40:08;33.30;99.90
12692;DHT22;6410;57.636;18.304;2022-07-29T14:42:38;33.50;99.90
12692;DHT22;6410;57.636;18.304;2022-07-29T14:45:08;31.50;99.90
12692;DHT22;6410;57.636;18.304;2022-07-29T14:47:38;32.60;99.90
12692;DHT22;6410;57.636;18.304;2022-07-29T14:50:07;33.10;99.90
12692;DHT22;6410;57.636;18.304;2022-07-29T14:52:35;31.80;99.90
12692;DHT22;6410;57.636;18.304;2022-07-29T14:55:04;32.90;99.90
12692;DHT22;6410;57.636;18.304;2022-07-29T14:57:44;34.40;99.90
12692;DHT22;6410;57.636;18.304;2022-07-29T15:00:12;33.30;99.90
12692;DHT22;6410;57.636;18.304;2022-07-29T15:02:42;34.20;99.90
12692;DHT22;6410;57.636;18.304;2022-07-29T15:05:28;35.60;99.90
12692;DHT22;6410;57.636;18.304;2022-07-29T15:07:57;35.90;99.90
12692;DHT22;6410;57.636;18.304;2022-07-29T15:10:25;36.30;99.90
12692;DHT22;6410;57.636;18.304;2022-07-29T15:12:55;36.50;99.90
12692;DHT22;6410;57.636;18.304;2022-07-29T15:15:24;35.20;99.90
12692;DHT22;6410;57.636;18.304;2022-07-29T15:17:52;35.70;99.90
12692;DHT22;6410;57.636;18.304;2022-07-29T15:20:21;36.40;99.90
12692;DHT22;6410;57.636;18.304;2022-07-29T15:22:52;34.30;99.90
12692;DHT22;6410;57.636;18.304;2022-07-29T15:25:22;34.10;99.90
12692;DHT22;6410;57.636;18.304;2022-07-29T15:27:51;33.20;99.90
12692;DHT22;6410;57.636;18.304;2022-07-29T15:30:26;31.50;99.90
12692;DHT22;6410;57.636;18.304;2022-07-29T15:33:00;31.80;99.90
12692;DHT22;6410;57.636;18.304;2022-07-29T15:35:28;32.40;99.90
12692;DHT22;6410;57.636;18.304;2022-07-29T15:37:57;33.30;99.90
12692;DHT22;6410;57.636;18.304;2022-07-29T15:40:25;31.60;99.90
12692;DHT22;6410;57.636;18.304;2022-07-29T15:42:53;30.80;99.90
12692;DHT22;6410;57.636;18.304;2022-07-29T15:45:22;31.50;99.90
12692;DHT22;6410;57.636;18.304;2022-07-29T15:47:52;32.50;99.90
12692;DHT22;6410;57.636;18.304;2022-07-29T15:50:20;29.20;99.90
12692;DHT22;6410;57.636;18.304;2022-07-29T15:52:48;28.30;99.90
12692;DHT22;6410;57.636;18.304;2022-07-29T15:55:16;29.30;99.90
12692;DHT22;6410;57.636;18.304;2022-07-29T15:57:45;27.90;99.90
12692;DHT22;6410;57.636;18.304;2022-07-29T16:00:13;29.30;99.90
12692;DHT22;6410;57.636;18.304;2022-07-29T16:02:43;29.50;99.90
12692;DHT22;6410;57.636;18.304;2022-07-29T16:05:13;31.00;99.90
12692;DHT22;6410;57.636;18.304;2022-07-29T16:07:41;32.10;99.90